sensor_id;sensor_type;location;lat;lon;timestamp;P1;durP1;ratioP1;P2;durP2;ratioP2
46407;SDS011;32110;45.724;21.276;2022-12-11T00:01:48;13.30;;;5.50;;
46407;SDS011;32110;45.724;21.276;2022-12-11T00:04:14;9.07;;;5.60;;
46407;SDS011;32110;45.724;21.276;2022-12-11T00:06:39;9.83;;;5.73;;
46407;SDS011;32110;45.724;21.276;2022-12-11T00:09:04;11.52;;;6.28;;
46407;SDS011;32110;45.724;21.276;2022-12-11T00:11:29;9.67;;;5.37;;
46407;SDS011;32110;45.724;21.276;2022-12-11T00:13:55;16.58;;;5.85;;
46407;SDS011;32110;45.724;21.276;2022-12-11T00:16:20;10.90;;;6.17;;
46407;SDS011;32110;45.724;21.276;2022-12-11T00:18:45;10.03;;;6.10;;
46407;SDS011;32110;45.724;21.276;2022-12-11T00:21:11;13.73;;;6.53;;
46407;SDS011;32110;45.724;21.276;2022-12-11T00:23:38;12.80;;;6.80;;
46407;SDS011;32110;45.724;21.276;2022-12-11T00:26:04;13.40;;;6.20;;
46407;SDS011;32110;45.724;21.276;2022-12-11T00:28:30;15.63;;;7.55;;
46407;SDS011;32110;45.724;21.276;2022-12-11T00:30:55;11.67;;;6.40;;
46407;SDS011;32110;45.724;21.276;2022-12-11T00:33:20;13.97;;;7.10;;
46407;SDS011;32110;45.724;21.276;2022-12-11T00:35:46;15.90;;;7.03;;
46407;SDS011;32110;45.724;21.276;2022-12-11T00:38:15;12.88;;;7.18;;
46407;SDS011;32110;45.724;21.276;2022-12-11T00:40:40;17.90;;;7.28;;
46407;SDS011;32110;45.724;21.276;2022-12-11T00:43:06;18.48;;;7.15;;
46407;SDS011;32110;45.724;21.276;2022-12-11T00:45:34;10.30;;;6.03;;
46407;SDS011;32110;45.724;21.276;2022-12-11T00:48:00;11.63;;;5.75;;
46407;SDS011;32110;45.724;21.276;2022-12-11T00:50:25;14.03;;;8.03;;
46407;SDS011;32110;45.724;21.276;2022-12-11T00:52:50;13.18;;;7.40;;
46407;SDS011;32110;45.724;21.276;2022-12-11T00:55:16;12.30;;;7.30;;
46407;SDS011;32110;45.724;21.276;2022-12-11T00:57:41;12.48;;;7.22;;
46407;SDS011;32110;45.724;21.276;2022-12-11T01:00:06;14.73;;;5.63;;
46407;SDS011;32110;45.724;21.276;2022-12-11T01:02:32;12.95;;;6.28;;
46407;SDS011;32110;45.724;21.276;2022-12-11T01:04:57;12.82;;;6.05;;
46407;SDS011;32110;45.724;21.276;2022-12-11T01:07:23;9.37;;;5.43;;
46407;SDS011;32110;45.724;21.276;2022-12-11T01:09:48;11.13;;;5.65;;
46407;SDS011;32110;45.724;21.276;2022-12-11T01:12:32;10.68;;;6.20;;
46407;SDS011;32110;45.724;21.276;2022-12-11T01:14:57;9.20;;;5.53;;
46407;SDS011;32110;45.724;21.276;2022-12-11T01:17:23;8.03;;;5.87;;
46407;SDS011;32110;45.724;21.276;2022-12-11T01:19:48;7.17;;;5.20;;
46407;SDS011;32110;45.724;21.276;2022-12-11T01:22:13;9.10;;;5.93;;
46407;SDS011;32110;45.724;21.276;2022-12-11T01:24:38;8.77;;;5.70;;
46407;SDS011;32110;45.724;21.276;2022-12-11T01:27:04;10.32;;;5.93;;
46407;SDS011;32110;45.724;21.276;2022-12-11T01:29:29;8.18;;;6.00;;
46407;SDS011;32110;45.724;21.276;2022-12-11T01:31:54;8.05;;;5.63;;
46407;SDS011;32110;45.724;21.276;2022-12-11T01:34:20;6.88;;;4.63;;
46407;SDS011;32110;45.724;21.276;2022-12-11T01:36:45;5.10;;;4.05;;
46407;SDS011;32110;45.724;21.276;2022-12-11T01:39:10;3.95;;;3.05;;
46407;SDS011;32110;45.724;21.276;2022-12-11T01:41:36;3.53;;;3.10;;
46407;SDS011;32110;45.724;21.276;2022-12-11T01:44:03;4.32;;;2.95;;
46407;SDS011;32110;45.724;21.276;2022-12-11T01:46:31;3.20;;;2.80;;
46407;SDS011;32110;45.724;21.276;2022-12-11T01:48:58;4.45;;;2.83;;
46407;SDS011;32110;45.724;21.276;2022-12-11T01:51:27;5.38;;;2.63;;
46407;SDS011;32110;45.724;21.276;2022-12-11T01:53:56;4.18;;;2.80;;
46407;SDS011;32110;45.724;21.276;2022-12-11T01:56:26;5.05;;;2.85;;
46407;SDS011;32110;45.724;21.276;2022-12-11T01:58:55;5.00;;;3.60;;
46407;SDS011;32110;45.724;21.276;2022-12-11T02:01:27;4.22;;;2.97;;
46407;SDS011;32110;45.724;21.276;2022-12-11T02:03:58;4.50;;;2.97;;
46407;SDS011;32110;45.724;21.276;2022-12-11T02:06:35;4.63;;;3.10;;
46407;SDS011;32110;45.724;21.276;2022-12-11T02:09:04;6.07;;;3.30;;
46407;SDS011;32110;45.724;21.276;2022-12-11T02:11:37;4.53;;;2.78;;
46407;SDS011;32110;45.724;21.276;2022-12-11T02:17:03;1.92;;;1.73;;
46407;SDS011;32110;45.724;21.276;2022-12-11T02:21:56;1.77;;;1.60;;
46407;SDS011;32110;45.724;21.276;2022-12-11T02:27:22;2.03;;;1.58;;
46407;SDS011;32110;45.724;21.276;2022-12-11T02:29:52;2.05;;;1.48;;
46407;SDS011;32110;45.724;21.276;2022-12-11T02:32:24;2.10;;;1.40;;
46407;SDS011;32110;45.724;21.276;2022-12-11T02:34:57;2.35;;;1.60;;
46407;SDS011;32110;45.724;21.276;2022-12-11T02:37:23;1.83;;;1.65;;
46407;SDS011;32110;45.724;21.276;2022-12-11T02:39:50;2.03;;;1.42;;
46407;SDS011;32110;45.724;21.276;2022-12-11T02:42:18;2.08;;;1.60;;
46407;SDS011;32110;45.724;21.276;2022-12-11T02:44:44;1.77;;;1.60;;
46407;SDS011;32110;45.724;21.276;2022-12-11T02:47:11;2.92;;;1.83;;
46407;SDS011;32110;45.724;21.276;2022-12-11T02:49:37;2.42;;;1.90;;
46407;SDS011;32110;45.724;21.276;2022-12-11T02:52:04;2.22;;;1.65;;
46407;SDS011;32110;45.724;21.276;2022-12-11T02:54:30;2.38;;;1.90;;
46407;SDS011;32110;45.724;21.276;2022-12-11T02:57:07;3.45;;;2.00;;
46407;SDS011;32110;45.724;21.276;2022-12-11T02:59:41;2.92;;;1.88;;
46407;SDS011;32110;45.724;21.276;2022-12-11T03:02:06;3.58;;;2.30;;
46407;SDS011;32110;45.724;21.276;2022-12-11T03:04:33;3.45;;;2.30;;
46407;SDS011;32110;45.724;21.276;2022-12-11T03:07:00;3.30;;;2.45;;
46407;SDS011;32110;45.724;21.276;2022-12-11T03:09:27;5.20;;;3.15;;
46407;SDS011;32110;45.724;21.276;2022-12-11T03:11:52;3.95;;;2.67;;
46407;SDS011;32110;45.724;21.276;2022-12-11T03:14:18;3.83;;;2.60;;
46407;SDS011;32110;45.724;21.276;2022-12-11T03:20:09;3.72;;;1.88;;
46407;SDS011;32110;45.724;21.276;2022-12-11T03:22:39;1.63;;;1.50;;
46407;SDS011;32110;45.724;21.276;2022-12-11T03:25:08;1.92;;;1.73;;
46407;SDS011;32110;45.724;21.276;2022-12-11T03:27:41;3.40;;;1.52;;
46407;SDS011;32110;45.724;21.276;2022-12-11T03:30:13;1.70;;;1.38;;
46407;SDS011;32110;45.724;21.276;2022-12-11T03:32:46;2.50;;;1.98;;
46407;SDS011;32110;45.724;21.276;2022-12-11T03:35:16;2.50;;;1.98;;
46407;SDS011;32110;45.724;21.276;2022-12-11T03:40:09;1.48;;;1.35;;
46407;SDS011;32110;45.724;21.276;2022-12-11T03:42:36;1.83;;;1.60;;
46407;SDS011;32110;45.724;21.276;2022-12-11T03:45:03;2.35;;;1.70;;
46407;SDS011;32110;45.724;21.276;2022-12-11T03:47:29;6.10;;;2.88;;
46407;SDS011;32110;45.724;21.276;2022-12-11T03:49:54;2.00;;;1.80;;
46407;SDS011;32110;45.724;21.276;2022-12-11T03:52:21;3.28;;;1.95;;
46407;SDS011;32110;45.724;21.276;2022-12-11T03:54:47;1.80;;;1.60;;
46407;SDS011;32110;45.724;21.276;2022-12-11T03:57:14;4.15;;;1.77;;
46407;SDS011;32110;45.724;21.276;2022-12-11T03:59:40;2.47;;;1.42;;
46407;SDS011;32110;45.724;21.276;2022-12-11T04:02:05;1.80;;;1.40;;
46407;SDS011;32110;45.724;21.276;2022-12-11T04:04:38;5.75;;;1.45;;
46407;SDS011;32110;45.724;21.276;2022-12-11T04:07:03;1.20;;;1.07;;
46407;SDS011;32110;45.724;21.276;2022-12-11T04:09:29;2.15;;;0.85;;
46407;SDS011;32110;45.724;21.276;2022-12-11T04:11:54;4.50;;;0.97;;
46407;SDS011;32110;45.724;21.276;2022-12-11T04:14:19;1.40;;;0.90;;
46407;SDS011;32110;45.724;21.276;2022-12-11T04:17:03;0.93;;;0.73;;
46407;SDS011;32110;45.724;21.276;2022-12-11T04:19:29;0.95;;;0.75;;
46407;SDS011;32110;45.724;21.276;2022-12-11T04:22:13;1.50;;;0.82;;
46407;SDS011;32110;45.724;21.276;2022-12-11T04:24:57;2.65;;;0.88;;
46407;SDS011;32110;45.724;21.276;2022-12-11T04:27:22;1.50;;;0.83;;
46407;SDS011;32110;45.724;21.276;2022-12-11T04:30:08;1.50;;;1.10;;
46407;SDS011;32110;45.724;21.276;2022-12-11T04:32:33;1.83;;;0.98;;
46407;SDS011;32110;45.724;21.276;2022-12-11T04:34:58;1.25;;;0.82;;
46407;SDS011;32110;45.724;21.276;2022-12-11T04:37:24;2.40;;;0.97;;
46407;SDS011;32110;45.724;21.276;2022-12-11T04:39:50;1.10;;;0.90;;
46407;SDS011;32110;45.724;21.276;2022-12-11T04:42:16;1.10;;;0.93;;
46407;SDS011;32110;45.724;21.276;2022-12-11T04:44:41;2.20;;;1.00;;
46407;SDS011;32110;45.724;21.276;2022-12-11T04:47:06;1.23;;;0.88;;
46407;SDS011;32110;45.724;21.276;2022-12-11T04:49:32;1.35;;;0.90;;
46407;SDS011;32110;45.724;21.276;2022-12-11T04:51:57;1.17;;;0.90;;
46407;SDS011;32110;45.724;21.276;2022-12-11T04:54:22;4.97;;;1.60;;
46407;SDS011;32110;45.724;21.276;2022-12-11T04:56:47;3.00;;;1.67;;
46407;SDS011;32110;45.724;21.276;2022-12-11T04:59:12;2.80;;;1.35;;
46407;SDS011;32110;45.724;21.276;2022-12-11T05:01:38;1.88;;;1.27;;
46407;SDS011;32110;45.724;21.276;2022-12-11T05:04:04;3.43;;;1.30;;
46407;SDS011;32110;45.724;21.276;2022-12-11T05:06:29;1.80;;;1.40;;
46407;SDS011;32110;45.724;21.276;2022-12-11T05:08:54;3.33;;;1.40;;
46407;SDS011;32110;45.724;21.276;2022-12-11T05:11:19;2.20;;;1.13;;
46407;SDS011;32110;45.724;21.276;2022-12-11T05:13:44;2.30;;;1.27;;
46407;SDS011;32110;45.724;21.276;2022-12-11T05:16:11;2.43;;;1.33;;
46407;SDS011;32110;45.724;21.276;2022-12-11T05:18:37;2.58;;;1.30;;
46407;SDS011;32110;45.724;21.276;2022-12-11T05:21:04;1.50;;;1.10;;
46407;SDS011;32110;45.724;21.276;2022-12-11T05:23:29;1.65;;;0.95;;
46407;SDS011;32110;45.724;21.276;2022-12-11T05:25:55;2.20;;;1.00;;
46407;SDS011;32110;45.724;21.276;2022-12-11T05:28:22;1.63;;;0.80;;
46407;SDS011;32110;45.724;21.276;2022-12-11T05:30:53;3.03;;;0.90;;
46407;SDS011;32110;45.724;21.276;2022-12-11T05:33:18;1.27;;;0.82;;
46407;SDS011;32110;45.724;21.276;2022-12-11T05:35:46;5.63;;;1.73;;
46407;SDS011;32110;45.724;21.276;2022-12-11T05:38:12;2.08;;;1.10;;
46407;SDS011;32110;45.724;21.276;2022-12-11T05:40:37;3.87;;;2.17;;
46407;SDS011;32110;45.724;21.276;2022-12-11T05:43:02;2.03;;;1.30;;
46407;SDS011;32110;45.724;21.276;2022-12-11T05:45:27;2.40;;;1.50;;
46407;SDS011;32110;45.724;21.276;2022-12-11T05:47:53;4.97;;;1.77;;
46407;SDS011;32110;45.724;21.276;2022-12-11T05:50:18;3.17;;;1.60;;
46407;SDS011;32110;45.724;21.276;2022-12-11T05:52:43;1.97;;;1.27;;
46407;SDS011;32110;45.724;21.276;2022-12-11T05:55:08;2.10;;;1.53;;
46407;SDS011;32110;45.724;21.276;2022-12-11T05:57:34;3.10;;;1.70;;
46407;SDS011;32110;45.724;21.276;2022-12-11T05:59:59;5.70;;;1.90;;
46407;SDS011;32110;45.724;21.276;2022-12-11T06:02:24;2.77;;;1.90;;
46407;SDS011;32110;45.724;21.276;2022-12-11T06:04:49;3.23;;;2.30;;
46407;SDS011;32110;45.724;21.276;2022-12-11T06:07:14;3.73;;;2.47;;
46407;SDS011;32110;45.724;21.276;2022-12-11T06:09:40;9.10;;;5.17;;
46407;SDS011;32110;45.724;21.276;2022-12-11T06:12:05;8.50;;;5.30;;
46407;SDS011;32110;45.724;21.276;2022-12-11T06:14:30;12.13;;;6.70;;
46407;SDS011;32110;45.724;21.276;2022-12-11T06:16:56;10.02;;;5.90;;
46407;SDS011;32110;45.724;21.276;2022-12-11T06:19:21;10.47;;;6.37;;
46407;SDS011;32110;45.724;21.276;2022-12-11T06:21:46;12.33;;;6.60;;
46407;SDS011;32110;45.724;21.276;2022-12-11T06:24:12;10.63;;;5.80;;
46407;SDS011;32110;45.724;21.276;2022-12-11T06:26:38;10.68;;;5.90;;
46407;SDS011;32110;45.724;21.276;2022-12-11T06:29:03;14.20;;;6.77;;
46407;SDS011;32110;45.724;21.276;2022-12-11T06:31:28;11.57;;;6.72;;
46407;SDS011;32110;45.724;21.276;2022-12-11T06:33:54;11.77;;;7.03;;
46407;SDS011;32110;45.724;21.276;2022-12-11T06:36:20;15.70;;;7.88;;
46407;SDS011;32110;45.724;21.276;2022-12-11T06:38:46;15.07;;;7.85;;
46407;SDS011;32110;45.724;21.276;2022-12-11T06:41:11;14.43;;;8.03;;
46407;SDS011;32110;45.724;21.276;2022-12-11T06:43:37;14.80;;;8.25;;
46407;SDS011;32110;45.724;21.276;2022-12-11T06:46:13;14.95;;;8.68;;
46407;SDS011;32110;45.724;21.276;2022-12-11T06:48:38;24.75;;;12.65;;
46407;SDS011;32110;45.724;21.276;2022-12-11T06:51:07;22.48;;;11.43;;
46407;SDS011;32110;45.724;21.276;2022-12-11T06:53:32;20.90;;;11.38;;
46407;SDS011;32110;45.724;21.276;2022-12-11T06:56:04;20.35;;;11.50;;
46407;SDS011;32110;45.724;21.276;2022-12-11T06:58:30;21.35;;;11.20;;
46407;SDS011;32110;45.724;21.276;2022-12-11T07:00:56;18.70;;;10.65;;
46407;SDS011;32110;45.724;21.276;2022-12-11T07:03:21;23.48;;;11.38;;
46407;SDS011;32110;45.724;21.276;2022-12-11T07:05:46;23.05;;;11.63;;
46407;SDS011;32110;45.724;21.276;2022-12-11T07:08:11;21.50;;;10.53;;
46407;SDS011;32110;45.724;21.276;2022-12-11T07:10:37;21.30;;;11.10;;
46407;SDS011;32110;45.724;21.276;2022-12-11T07:13:02;24.13;;;12.63;;
46407;SDS011;32110;45.724;21.276;2022-12-11T07:15:27;24.53;;;11.73;;
46407;SDS011;32110;45.724;21.276;2022-12-11T07:17:52;25.97;;;12.90;;
46407;SDS011;32110;45.724;21.276;2022-12-11T07:20:17;23.23;;;12.07;;
46407;SDS011;32110;45.724;21.276;2022-12-11T07:22:43;21.70;;;11.15;;
46407;SDS011;32110;45.724;21.276;2022-12-11T07:25:08;25.10;;;12.73;;
46407;SDS011;32110;45.724;21.276;2022-12-11T07:27:33;23.35;;;11.80;;
46407;SDS011;32110;45.724;21.276;2022-12-11T07:29:59;23.77;;;12.85;;
46407;SDS011;32110;45.724;21.276;2022-12-11T07:32:24;23.20;;;12.63;;
46407;SDS011;32110;45.724;21.276;2022-12-11T07:34:49;23.63;;;12.07;;
46407;SDS011;32110;45.724;21.276;2022-12-11T07:37:15;25.58;;;12.65;;
46407;SDS011;32110;45.724;21.276;2022-12-11T07:39:40;23.53;;;12.10;;
46407;SDS011;32110;45.724;21.276;2022-12-11T07:42:05;24.07;;;12.73;;
46407;SDS011;32110;45.724;21.276;2022-12-11T07:44:31;28.40;;;13.20;;
46407;SDS011;32110;45.724;21.276;2022-12-11T07:46:56;26.85;;;13.05;;
46407;SDS011;32110;45.724;21.276;2022-12-11T07:49:22;23.40;;;12.20;;
46407;SDS011;32110;45.724;21.276;2022-12-11T07:51:47;25.67;;;12.80;;
46407;SDS011;32110;45.724;21.276;2022-12-11T07:54:13;25.97;;;12.30;;
46407;SDS011;32110;45.724;21.276;2022-12-11T07:56:40;23.80;;;12.68;;
46407;SDS011;32110;45.724;21.276;2022-12-11T07:59:06;24.88;;;12.10;;
46407;SDS011;32110;45.724;21.276;2022-12-11T08:01:32;23.05;;;12.05;;
46407;SDS011;32110;45.724;21.276;2022-12-11T08:03:59;27.70;;;14.13;;
46407;SDS011;32110;45.724;21.276;2022-12-11T08:06:29;30.67;;;15.07;;
46407;SDS011;32110;45.724;21.276;2022-12-11T08:08:54;31.90;;;16.27;;
46407;SDS011;32110;45.724;21.276;2022-12-11T08:11:20;31.00;;;15.45;;
46407;SDS011;32110;45.724;21.276;2022-12-11T08:13:46;28.83;;;14.50;;
46407;SDS011;32110;45.724;21.276;2022-12-11T08:16:12;31.25;;;15.00;;
46407;SDS011;32110;45.724;21.276;2022-12-11T08:18:38;38.65;;;17.52;;
46407;SDS011;32110;45.724;21.276;2022-12-11T08:21:07;34.58;;;15.98;;
46407;SDS011;32110;45.724;21.276;2022-12-11T08:23:33;36.28;;;15.35;;
46407;SDS011;32110;45.724;21.276;2022-12-11T08:26:00;47.67;;;17.88;;
46407;SDS011;32110;45.724;21.276;2022-12-11T08:28:25;49.58;;;16.85;;
46407;SDS011;32110;45.724;21.276;2022-12-11T08:30:50;44.63;;;18.20;;
46407;SDS011;32110;45.724;21.276;2022-12-11T08:33:16;63.90;;;21.50;;
46407;SDS011;32110;45.724;21.276;2022-12-11T08:35:41;66.33;;;21.30;;
46407;SDS011;32110;45.724;21.276;2022-12-11T08:38:08;58.08;;;18.35;;
46407;SDS011;32110;45.724;21.276;2022-12-11T08:40:33;24.95;;;12.70;;
46407;SDS011;32110;45.724;21.276;2022-12-11T08:42:58;31.60;;;14.63;;
46407;SDS011;32110;45.724;21.276;2022-12-11T08:45:23;29.10;;;13.60;;
46407;SDS011;32110;45.724;21.276;2022-12-11T08:47:49;27.83;;;14.13;;
46407;SDS011;32110;45.724;21.276;2022-12-11T08:50:14;21.77;;;11.63;;
46407;SDS011;32110;45.724;21.276;2022-12-11T08:52:39;24.35;;;12.23;;
46407;SDS011;32110;45.724;21.276;2022-12-11T08:55:05;29.33;;;13.80;;
46407;SDS011;32110;45.724;21.276;2022-12-11T08:57:30;20.10;;;10.73;;
46407;SDS011;32110;45.724;21.276;2022-12-11T08:59:55;23.80;;;12.73;;
46407;SDS011;32110;45.724;21.276;2022-12-11T09:02:21;27.17;;;13.17;;
46407;SDS011;32110;45.724;21.276;2022-12-11T09:04:46;27.43;;;13.53;;
46407;SDS011;32110;45.724;21.276;2022-12-11T09:07:11;24.90;;;12.73;;
46407;SDS011;32110;45.724;21.276;2022-12-11T09:09:36;32.80;;;11.70;;
46407;SDS011;32110;45.724;21.276;2022-12-11T09:12:02;24.55;;;12.45;;
46407;SDS011;32110;45.724;21.276;2022-12-11T09:14:28;22.20;;;11.02;;
46407;SDS011;32110;45.724;21.276;2022-12-11T09:16:53;22.87;;;11.67;;
46407;SDS011;32110;45.724;21.276;2022-12-11T09:19:19;26.27;;;12.33;;
46407;SDS011;32110;45.724;21.276;2022-12-11T09:21:44;23.87;;;11.33;;
46407;SDS011;32110;45.724;21.276;2022-12-11T09:24:09;22.90;;;11.23;;
46407;SDS011;32110;45.724;21.276;2022-12-11T09:26:35;20.70;;;10.65;;
46407;SDS011;32110;45.724;21.276;2022-12-11T09:29:01;23.70;;;11.10;;
46407;SDS011;32110;45.724;21.276;2022-12-11T09:31:28;24.48;;;11.43;;
46407;SDS011;32110;45.724;21.276;2022-12-11T09:33:54;25.20;;;12.13;;
46407;SDS011;32110;45.724;21.276;2022-12-11T09:36:20;23.30;;;12.23;;
46407;SDS011;32110;45.724;21.276;2022-12-11T09:38:45;28.15;;;11.95;;
46407;SDS011;32110;45.724;21.276;2022-12-11T09:41:19;26.58;;;12.63;;
46407;SDS011;32110;45.724;21.276;2022-12-11T09:43:53;26.00;;;12.38;;
46407;SDS011;32110;45.724;21.276;2022-12-11T09:46:21;27.17;;;12.93;;
46407;SDS011;32110;45.724;21.276;2022-12-11T09:48:47;26.98;;;13.00;;
46407;SDS011;32110;45.724;21.276;2022-12-11T09:51:17;30.52;;;13.18;;
46407;SDS011;32110;45.724;21.276;2022-12-11T09:53:46;27.50;;;13.80;;
46407;SDS011;32110;45.724;21.276;2022-12-11T10:16:44;23.33;;;12.20;;
46407;SDS011;32110;45.724;21.276;2022-12-11T10:19:13;24.25;;;13.23;;
46407;SDS011;32110;45.724;21.276;2022-12-11T10:21:42;26.92;;;12.93;;
46407;SDS011;32110;45.724;21.276;2022-12-11T10:24:50;26.50;;;13.05;;
46407;SDS011;32110;45.724;21.276;2022-12-11T10:26:57;24.23;;;12.38;;
46407;SDS011;32110;45.724;21.276;2022-12-11T10:29:23;27.25;;;13.95;;
46407;SDS011;32110;45.724;21.276;2022-12-11T10:31:49;24.60;;;12.88;;
46407;SDS011;32110;45.724;21.276;2022-12-11T10:34:33;25.65;;;12.70;;
46407;SDS011;32110;45.724;21.276;2022-12-11T10:36:59;24.88;;;12.93;;
46407;SDS011;32110;45.724;21.276;2022-12-11T10:39:24;25.10;;;13.50;;
46407;SDS011;32110;45.724;21.276;2022-12-11T10:41:51;24.48;;;13.45;;
46407;SDS011;32110;45.724;21.276;2022-12-11T10:44:20;23.77;;;12.27;;
46407;SDS011;32110;45.724;21.276;2022-12-11T10:49:26;24.40;;;12.47;;
46407;SDS011;32110;45.724;21.276;2022-12-11T10:51:51;27.73;;;14.10;;
46407;SDS011;32110;45.724;21.276;2022-12-11T10:56:51;26.23;;;13.35;;
46407;SDS011;32110;45.724;21.276;2022-12-11T10:59:28;29.55;;;13.93;;
46407;SDS011;32110;45.724;21.276;2022-12-11T11:01:55;29.50;;;15.18;;
46407;SDS011;32110;45.724;21.276;2022-12-11T11:04:22;23.75;;;12.05;;
46407;SDS011;32110;45.724;21.276;2022-12-11T11:09:36;22.55;;;11.27;;
46407;SDS011;32110;45.724;21.276;2022-12-11T11:12:02;25.25;;;14.45;;
46407;SDS011;32110;45.724;21.276;2022-12-11T11:14:27;21.52;;;11.65;;
46407;SDS011;32110;45.724;21.276;2022-12-11T11:16:56;25.23;;;13.55;;
46407;SDS011;32110;45.724;21.276;2022-12-11T11:19:34;25.67;;;14.23;;
46407;SDS011;32110;45.724;21.276;2022-12-11T11:22:07;23.73;;;13.32;;
46407;SDS011;32110;45.724;21.276;2022-12-11T11:27:18;28.95;;;14.35;;
46407;SDS011;32110;45.724;21.276;2022-12-11T11:29:46;30.48;;;14.85;;
46407;SDS011;32110;45.724;21.276;2022-12-11T11:32:33;24.20;;;13.82;;
46407;SDS011;32110;45.724;21.276;2022-12-11T11:37:38;28.10;;;13.65;;
46407;SDS011;32110;45.724;21.276;2022-12-11T11:40:12;29.27;;;13.85;;
46407;SDS011;32110;45.724;21.276;2022-12-11T11:45:24;29.58;;;13.75;;
46407;SDS011;32110;45.724;21.276;2022-12-11T11:50:43;27.58;;;13.38;;
46407;SDS011;32110;45.724;21.276;2022-12-11T11:53:16;35.95;;;15.88;;
46407;SDS011;32110;45.724;21.276;2022-12-11T11:55:53;33.67;;;15.27;;
46407;SDS011;32110;45.724;21.276;2022-12-11T11:58:23;33.25;;;15.70;;
46407;SDS011;32110;45.724;21.276;2022-12-11T12:00:54;33.25;;;15.35;;
46407;SDS011;32110;45.724;21.276;2022-12-11T12:03:20;34.92;;;15.00;;
46407;SDS011;32110;45.724;21.276;2022-12-11T12:10:52;28.27;;;13.27;;
46407;SDS011;32110;45.724;21.276;2022-12-11T12:16:09;38.80;;;15.80;;
46407;SDS011;32110;45.724;21.276;2022-12-11T12:18:47;41.55;;;16.77;;
46407;SDS011;32110;45.724;21.276;2022-12-11T12:21:35;34.72;;;15.73;;
46407;SDS011;32110;45.724;21.276;2022-12-11T12:26:46;39.97;;;15.95;;
46407;SDS011;32110;45.724;21.276;2022-12-11T12:39:14;37.45;;;17.13;;
46407;SDS011;32110;45.724;21.276;2022-12-11T12:44:20;31.48;;;15.93;;
46407;SDS011;32110;45.724;21.276;2022-12-11T12:49:50;30.13;;;13.98;;
46407;SDS011;32110;45.724;21.276;2022-12-11T12:52:29;30.95;;;15.57;;
46407;SDS011;32110;45.724;21.276;2022-12-11T12:54:55;33.70;;;14.80;;
46407;SDS011;32110;45.724;21.276;2022-12-11T12:57:45;30.20;;;15.13;;
46407;SDS011;32110;45.724;21.276;2022-12-11T13:00:12;32.53;;;14.68;;
46407;SDS011;32110;45.724;21.276;2022-12-11T13:02:45;26.02;;;12.65;;
46407;SDS011;32110;45.724;21.276;2022-12-11T13:05:19;24.45;;;12.90;;
46407;SDS011;32110;45.724;21.276;2022-12-11T13:07:49;27.15;;;14.13;;
46407;SDS011;32110;45.724;21.276;2022-12-11T13:12:47;29.00;;;13.90;;
46407;SDS011;32110;45.724;21.276;2022-12-11T13:15:23;27.00;;;13.98;;
46407;SDS011;32110;45.724;21.276;2022-12-11T13:17:49;21.98;;;12.45;;
46407;SDS011;32110;45.724;21.276;2022-12-11T13:20:15;23.92;;;12.68;;
46407;SDS011;32110;45.724;21.276;2022-12-11T13:25:29;24.83;;;12.23;;
46407;SDS011;32110;45.724;21.276;2022-12-11T13:28:18;25.98;;;12.95;;
46407;SDS011;32110;45.724;21.276;2022-12-11T13:33:16;29.47;;;14.67;;
46407;SDS011;32110;45.724;21.276;2022-12-11T13:35:42;28.58;;;14.18;;
46407;SDS011;32110;45.724;21.276;2022-12-11T13:38:14;27.45;;;13.75;;
46407;SDS011;32110;45.724;21.276;2022-12-11T13:40:41;27.77;;;14.40;;
46407;SDS011;32110;45.724;21.276;2022-12-11T13:43:08;27.88;;;14.57;;
46407;SDS011;32110;45.724;21.276;2022-12-11T13:48:20;29.48;;;15.25;;
46407;SDS011;32110;45.724;21.276;2022-12-11T13:50:46;32.55;;;15.85;;
46407;SDS011;32110;45.724;21.276;2022-12-11T13:53:12;31.98;;;15.77;;
46407;SDS011;32110;45.724;21.276;2022-12-11T13:55:38;32.20;;;15.68;;
46407;SDS011;32110;45.724;21.276;2022-12-11T13:58:12;26.27;;;13.53;;
46407;SDS011;32110;45.724;21.276;2022-12-11T14:00:38;29.58;;;14.50;;
46407;SDS011;32110;45.724;21.276;2022-12-11T14:03:04;33.30;;;16.47;;
46407;SDS011;32110;45.724;21.276;2022-12-11T14:05:32;29.05;;;12.80;;
46407;SDS011;32110;45.724;21.276;2022-12-11T14:07:58;26.45;;;13.35;;
46407;SDS011;32110;45.724;21.276;2022-12-11T14:10:26;28.48;;;14.02;;
46407;SDS011;32110;45.724;21.276;2022-12-11T14:15:23;34.40;;;16.05;;
46407;SDS011;32110;45.724;21.276;2022-12-11T14:17:48;26.25;;;12.88;;
46407;SDS011;32110;45.724;21.276;2022-12-11T14:20:16;27.63;;;13.50;;
46407;SDS011;32110;45.724;21.276;2022-12-11T14:22:42;25.77;;;13.05;;
46407;SDS011;32110;45.724;21.276;2022-12-11T14:25:15;26.00;;;13.07;;
46407;SDS011;32110;45.724;21.276;2022-12-11T14:27:46;24.67;;;12.43;;
46407;SDS011;32110;45.724;21.276;2022-12-11T14:30:11;28.38;;;13.93;;
46407;SDS011;32110;45.724;21.276;2022-12-11T14:32:39;26.83;;;14.43;;
46407;SDS011;32110;45.724;21.276;2022-12-11T14:35:09;27.20;;;13.98;;
46407;SDS011;32110;45.724;21.276;2022-12-11T14:37:40;25.02;;;14.00;;
46407;SDS011;32110;45.724;21.276;2022-12-11T14:40:09;28.05;;;12.63;;
46407;SDS011;32110;45.724;21.276;2022-12-11T14:42:41;26.00;;;12.93;;
46407;SDS011;32110;45.724;21.276;2022-12-11T14:45:22;28.33;;;13.27;;
46407;SDS011;32110;45.724;21.276;2022-12-11T14:47:50;26.60;;;13.32;;
46407;SDS011;32110;45.724;21.276;2022-12-11T14:50:26;31.40;;;14.25;;
46407;SDS011;32110;45.724;21.276;2022-12-11T14:53:02;26.75;;;12.93;;
46407;SDS011;32110;45.724;21.276;2022-12-11T14:55:29;28.30;;;14.13;;
46407;SDS011;32110;45.724;21.276;2022-12-11T14:57:58;28.23;;;13.90;;
46407;SDS011;32110;45.724;21.276;2022-12-11T15:00:26;27.48;;;13.50;;
46407;SDS011;32110;45.724;21.276;2022-12-11T15:03:35;27.50;;;13.30;;
46407;SDS011;32110;45.724;21.276;2022-12-11T15:08:33;31.13;;;14.50;;
46407;SDS011;32110;45.724;21.276;2022-12-11T15:11:03;30.52;;;15.77;;
46407;SDS011;32110;45.724;21.276;2022-12-11T15:13:30;29.15;;;13.82;;
46407;SDS011;32110;45.724;21.276;2022-12-11T15:15:55;27.55;;;13.25;;
46407;SDS011;32110;45.724;21.276;2022-12-11T15:18:22;25.50;;;12.82;;
46407;SDS011;32110;45.724;21.276;2022-12-11T15:23:50;29.00;;;14.13;;
46407;SDS011;32110;45.724;21.276;2022-12-11T15:26:16;26.70;;;13.40;;
46407;SDS011;32110;45.724;21.276;2022-12-11T15:28:41;25.35;;;12.70;;
46407;SDS011;32110;45.724;21.276;2022-12-11T15:31:21;26.07;;;12.57;;
46407;SDS011;32110;45.724;21.276;2022-12-11T15:33:47;26.88;;;13.40;;
46407;SDS011;32110;45.724;21.276;2022-12-11T15:36:25;27.02;;;13.00;;
46407;SDS011;32110;45.724;21.276;2022-12-11T15:38:54;33.55;;;16.45;;
46407;SDS011;32110;45.724;21.276;2022-12-11T15:41:19;38.78;;;17.55;;
46407;SDS011;32110;45.724;21.276;2022-12-11T15:43:45;40.28;;;17.95;;
46407;SDS011;32110;45.724;21.276;2022-12-11T15:46:11;31.63;;;15.50;;
46407;SDS011;32110;45.724;21.276;2022-12-11T15:48:36;25.08;;;13.40;;
46407;SDS011;32110;45.724;21.276;2022-12-11T15:51:02;26.60;;;13.63;;
46407;SDS011;32110;45.724;21.276;2022-12-11T15:53:27;26.92;;;13.82;;
46407;SDS011;32110;45.724;21.276;2022-12-11T15:55:53;32.83;;;15.40;;
46407;SDS011;32110;45.724;21.276;2022-12-11T15:58:19;25.63;;;12.93;;
46407;SDS011;32110;45.724;21.276;2022-12-11T16:00:45;29.73;;;13.98;;